createdAt,value
2017-08-01T00:01:54.410Z,100785.61
2017-08-01T00:04:21.820Z,100784.27
2017-08-01T00:06:49.204Z,100771.75
2017-08-01T00:09:16.607Z,100774.52
2017-08-01T00:11:43.988Z,100775.54
2017-08-01T00:14:11.389Z,100774.77
2017-08-01T00:16:38.783Z,100772.84
2017-08-01T00:19:06.175Z,100768.22
2017-08-01T00:21:33.568Z,100761.39
2017-08-01T00:24:00.958Z,100762.32
2017-08-01T00:26:28.391Z,100769.05
2017-08-01T00:28:55.792Z,100762.84
2017-08-01T00:31:23.174Z,100768.38
2017-08-01T00:33:50.570Z,100769.37
2017-08-01T00:36:17.960Z,100772.58
2017-08-01T00:38:45.374Z,100775.79
2017-08-01T00:41:12.820Z,100782.66
2017-08-01T00:43:40.207Z,100788.91
2017-08-01T00:46:07.603Z,100798.99
2017-08-01T00:48:34.983Z,100794.67
2017-08-01T00:51:02.388Z,100788.89
2017-08-01T00:53:29.770Z,100794.95
2017-08-01T00:55:57.159Z,100799.00
2017-08-01T00:58:24.552Z,100804.20
2017-08-01T01:00:52.945Z,100806.15
2017-08-01T01:03:20.548Z,100797.72
2017-08-01T01:05:48.195Z,100803.87
2017-08-01T01:08:15.571Z,100804.47
2017-08-01T01:10:42.975Z,100810.19
2017-08-01T01:13:10.367Z,100802.27
2017-08-01T01:15:37.759Z,100795.88
2017-08-01T01:18:05.155Z,100784.19
2017-08-01T01:20:32.546Z,100779.31
2017-08-01T01:22:59.932Z,100771.91
2017-08-01T01:25:27.323Z,100755.26
2017-08-01T01:27:54.715Z,100752.91
2017-08-01T01:30:22.108Z,100760.74
2017-08-01T01:32:49.510Z,100746.19
2017-08-01T01:35:16.895Z,100733.24
2017-08-01T01:37:44.307Z,100721.39
2017-08-01T01:40:11.688Z,100710.52
2017-08-01T01:42:39.299Z,100707.47
2017-08-01T01:45:06.684Z,100699.69
2017-08-01T01:47:34.087Z,100711.17
2017-08-01T01:50:01.486Z,100696.38
2017-08-01T01:52:28.860Z,100694.26
2017-08-01T01:54:56.258Z,100694.45
2017-08-01T01:57:23.650Z,100699.49
2017-08-01T01:59:51.036Z,100685.95
2017-08-01T02:02:18.436Z,100689.59
2017-08-01T02:04:45.827Z,100694.53
2017-08-01T02:07:13.219Z,100707.66
2017-08-01T02:09:40.620Z,100701.09
2017-08-01T02:12:08.011Z,100697.21
2017-08-01T02:14:35.407Z,100687.13
2017-08-01T02:17:02.799Z,100676.45
2017-08-01T02:19:30.203Z,100672.00
2017-08-01T02:21:57.593Z,100665.68
2017-08-01T02:24:24.974Z,100681.15
2017-08-01T02:26:52.379Z,100691.25
2017-08-01T02:29:19.770Z,100695.12
2017-08-01T02:31:47.175Z,100697.23
2017-08-01T02:34:14.569Z,100697.73
2017-08-01T02:36:41.962Z,100706.12
2017-08-01T02:39:09.352Z,100712.20
2017-08-01T02:41:36.735Z,100717.08
2017-08-01T02:44:04.135Z,100731.73
2017-08-01T02:46:31.524Z,100745.01
2017-08-01T02:48:58.935Z,100747.61
2017-08-01T02:51:26.323Z,100750.81
2017-08-01T02:53:53.718Z,100752.73
2017-08-01T02:56:21.115Z,100772.78
2017-08-01T02:58:48.663Z,100765.89
2017-08-01T03:01:16.056Z,100766.11
2017-08-01T03:03:43.443Z,100768.98
2017-08-01T03:06:10.867Z,100776.68
2017-08-01T03:08:38.244Z,100782.91
2017-08-01T03:11:05.640Z,100776.86
2017-08-01T03:13:33.115Z,100776.68
2017-08-01T03:16:00.500Z,100771.98
2017-08-01T03:18:27.892Z,100770.71
2017-08-01T03:20:55.287Z,100773.72
2017-08-01T03:23:22.683Z,100782.33
2017-08-01T03:25:50.071Z,100783.88
2017-08-01T03:28:17.473Z,100771.96
2017-08-01T03:30:44.860Z,100765.91
2017-08-01T03:33:12.265Z,100768.02
2017-08-01T03:35:39.664Z,100763.89
2017-08-01T03:38:07.056Z,100769.86
2017-08-01T03:40:34.445Z,100772.05
2017-08-01T03:43:01.826Z,100765.31
2017-08-01T03:45:29.234Z,100748.75
2017-08-01T03:47:56.648Z,100746.84
2017-08-01T03:50:24.050Z,100742.63
2017-08-01T03:52:51.436Z,100739.25
2017-08-01T03:55:18.827Z,100732.28
2017-08-01T03:57:46.232Z,100725.89
2017-08-01T04:00:13.679Z,100724.41
2017-08-01T04:02:41.052Z,100716.88
2017-08-01T04:05:08.446Z,100717.11
2017-08-01T04:07:35.826Z,100707.36
2017-08-01T04:10:03.224Z,100708.36
2017-08-01T04:12:30.610Z,100710.48
2017-08-01T04:14:58.016Z,100702.84
2017-08-01T04:17:25.413Z,100709.56
2017-08-01T04:19:52.817Z,100709.55
2017-08-01T04:22:20.239Z,100717.29
2017-08-01T04:24:47.615Z,100713.26
2017-08-01T04:27:15.015Z,100716.48
2017-08-01T04:29:42.410Z,100715.30
2017-08-01T04:32:09.810Z,100714.63
2017-08-01T04:34:37.198Z,100725.19
2017-08-01T04:37:04.602Z,100719.92
2017-08-01T04:39:31.987Z,100708.42
2017-08-01T04:41:59.393Z,100712.78
2017-08-01T04:44:26.778Z,100709.84
2017-08-01T04:46:54.175Z,100713.03
2017-08-01T04:49:21.591Z,100710.50
2017-08-01T04:51:49.000Z,100713.88
2017-08-01T04:54:16.387Z,100718.34
2017-08-01T04:56:43.789Z,100718.34
2017-08-01T04:59:11.178Z,100717.91
2017-08-01T05:01:38.571Z,100713.88
2017-08-01T05:04:05.963Z,100713.27
2017-08-01T05:06:33.371Z,100706.74
2017-08-01T05:09:00.771Z,100709.66
2017-08-01T05:11:28.169Z,100712.61
2017-08-01T05:13:55.578Z,100707.91
2017-08-01T05:16:22.976Z,100707.57
2017-08-01T05:18:50.379Z,100709.41
2017-08-01T05:21:17.767Z,100703.94
2017-08-01T05:23:45.162Z,100712.75
2017-08-01T05:26:12.554Z,100705.63
2017-08-01T05:28:39.950Z,100707.55
2017-08-01T05:31:07.355Z,100714.85
2017-08-01T05:33:34.746Z,100710.73
2017-08-01T05:36:02.130Z,100703.17
2017-08-01T05:38:29.532Z,100703.07
2017-08-01T05:40:56.955Z,100706.12
2017-08-01T05:43:24.580Z,100700.21
2017-08-01T05:45:51.990Z,100695.38
2017-08-01T05:48:19.382Z,100693.82
2017-08-01T05:50:46.790Z,100695.00
2017-08-01T05:53:14.183Z,100694.84
2017-08-01T05:55:42.254Z,100693.67
2017-08-01T05:58:09.676Z,100685.77
2017-08-01T06:00:37.060Z,100681.56
2017-08-01T06:03:04.628Z,100677.55
2017-08-01T06:05:32.042Z,100663.84
2017-08-01T06:07:59.418Z,100660.67
2017-08-01T06:10:26.810Z,100681.83
2017-08-01T06:12:54.194Z,100698.56
2017-08-01T06:15:21.590Z,100697.46
2017-08-01T06:17:48.974Z,100700.58
2017-08-01T06:20:16.373Z,100708.23
2017-08-01T06:22:43.758Z,100718.50
2017-08-01T06:25:11.158Z,100723.80
2017-08-01T06:27:38.539Z,100722.03
2017-08-01T06:30:05.932Z,100713.45
2017-08-01T06:32:33.315Z,100709.42
2017-08-01T06:35:00.715Z,100715.55
2017-08-01T06:37:28.105Z,100723.56
2017-08-01T06:39:55.503Z,100738.59
2017-08-01T06:42:22.882Z,100743.40
2017-08-01T06:44:50.278Z,100736.48
2017-08-01T06:47:17.671Z,100735.53
2017-08-01T06:49:45.062Z,100724.56
2017-08-01T06:52:12.463Z,100712.55
2017-08-01T06:54:39.858Z,100698.69
2017-08-01T06:57:07.243Z,100694.74
2017-08-01T06:59:34.635Z,100692.66
2017-08-01T07:02:02.067Z,100687.27
2017-08-01T07:04:29.454Z,100687.39
2017-08-01T07:06:56.863Z,100692.10
2017-08-01T07:09:24.251Z,100683.80
2017-08-01T07:11:51.639Z,100671.56
2017-08-01T07:14:19.022Z,100660.98
2017-08-01T07:16:46.415Z,100653.31
2017-08-01T07:19:13.809Z,100677.69
2017-08-01T07:21:41.204Z,100693.22
2017-08-01T07:24:08.611Z,100699.78
2017-08-01T07:26:36.002Z,100703.05
2017-08-01T07:29:03.386Z,100708.45
2017-08-01T07:31:30.783Z,100699.31
2017-08-01T07:33:58.171Z,100702.67
2017-08-01T07:36:25.567Z,100707.61
2017-08-01T07:38:52.958Z,100716.00
2017-08-01T07:41:20.355Z,100724.78
2017-08-01T07:43:47.750Z,100726.27
2017-08-01T07:46:15.155Z,100721.13
2017-08-01T07:48:42.535Z,100721.63
2017-08-01T07:51:09.930Z,100721.61
2017-08-01T07:53:37.319Z,100725.08
2017-08-01T07:56:04.743Z,100733.84
2017-08-01T07:58:32.138Z,100738.87
2017-08-01T08:00:59.530Z,100748.14
2017-08-01T08:03:26.935Z,100749.89
2017-08-01T08:05:54.334Z,100749.41
2017-08-01T08:08:21.759Z,100746.02
2017-08-01T08:10:49.166Z,100746.50
2017-08-01T08:13:16.576Z,100751.55
2017-08-01T08:15:43.965Z,100747.86
2017-08-01T08:18:11.361Z,100753.59
2017-08-01T08:20:38.771Z,100750.20
2017-08-01T08:23:06.166Z,100754.79
2017-08-01T08:25:33.542Z,100753.05
2017-08-01T08:28:00.942Z,100757.53
2017-08-01T08:30:28.335Z,100763.63
2017-08-01T08:32:58.038Z,100766.91
2017-08-01T08:35:25.431Z,100770.38
2017-08-01T08:37:52.834Z,100766.47
2017-08-01T08:40:20.220Z,100771.25
2017-08-01T08:42:47.602Z,100774.23
2017-08-01T08:45:15.001Z,100772.36
2017-08-01T08:47:42.406Z,100772.15
2017-08-01T08:50:09.794Z,100774.01
2017-08-01T08:52:37.198Z,100764.44
2017-08-01T08:55:04.606Z,100772.64
2017-08-01T08:57:32.218Z,100767.74
2017-08-01T08:59:59.626Z,100770.95
2017-08-01T09:02:27.015Z,100766.26
2017-08-01T09:04:54.416Z,100771.78
2017-08-01T09:07:21.798Z,100766.52
2017-08-01T09:09:49.202Z,100766.20
2017-08-01T09:12:16.598Z,100767.89
2017-08-01T09:14:43.994Z,100768.85
2017-08-01T09:17:11.387Z,100767.47
2017-08-01T09:19:38.784Z,100771.00
2017-08-01T09:22:06.176Z,100766.64
2017-08-01T09:24:33.582Z,100768.88
2017-08-01T09:27:01.032Z,100768.58
2017-08-01T09:29:28.445Z,100768.28
2017-08-01T09:31:55.867Z,100758.69
2017-08-01T09:34:23.278Z,100758.10
2017-08-01T09:36:50.879Z,100755.72
2017-08-01T09:39:18.275Z,100754.20
2017-08-01T09:41:45.667Z,100746.02
2017-08-01T09:44:13.059Z,100740.65
2017-08-01T09:46:40.450Z,100734.88
2017-08-01T09:49:07.847Z,100739.83
2017-08-01T09:51:35.258Z,100731.32
2017-08-01T09:54:02.647Z,100730.72
2017-08-01T09:56:30.046Z,100735.44
2017-08-01T09:58:57.450Z,100739.62
2017-08-01T10:01:24.848Z,100741.50
2017-08-01T10:03:52.235Z,100743.42
2017-08-01T10:06:19.627Z,100751.87
2017-08-01T10:08:47.022Z,100760.38
2017-08-01T10:11:14.423Z,100764.11
2017-08-01T10:13:41.851Z,100752.39
2017-08-01T10:16:09.265Z,100750.58
2017-08-01T10:18:36.659Z,100746.18
2017-08-01T10:21:04.080Z,100748.40
2017-08-01T10:23:31.475Z,100753.72
2017-08-01T10:25:58.859Z,100769.62
2017-08-01T10:28:26.263Z,100774.97
2017-08-01T10:30:53.684Z,100776.22
2017-08-01T10:33:21.105Z,100778.88
2017-08-01T10:35:48.490Z,100783.31
2017-08-01T10:38:15.929Z,100788.08
2017-08-01T10:40:43.316Z,100793.84
2017-08-01T10:43:10.740Z,100788.55
2017-08-01T10:45:38.116Z,100780.53
2017-08-01T10:48:05.535Z,100777.91
2017-08-01T10:50:32.922Z,100777.16
2017-08-01T10:53:00.369Z,100775.16
2017-08-01T10:55:27.747Z,100764.48
2017-08-01T10:57:55.151Z,100761.42
2017-08-01T11:00:22.534Z,100750.17
2017-08-01T11:02:49.933Z,100747.50
2017-08-01T11:05:17.330Z,100738.11
2017-08-01T11:07:44.738Z,100739.06
2017-08-01T11:10:12.154Z,100721.06
2017-08-01T11:12:39.552Z,100695.17
2017-08-01T11:15:07.062Z,100683.98
2017-08-01T11:17:34.443Z,100663.70
2017-08-01T11:20:01.874Z,100636.55
2017-08-01T11:22:29.254Z,100635.09
2017-08-01T11:24:56.656Z,100659.22
2017-08-01T11:27:24.038Z,100669.45
2017-08-01T11:29:51.434Z,100690.88
2017-08-01T11:32:19.616Z,100694.13
2017-08-01T11:34:47.020Z,100678.44
2017-08-01T11:37:14.416Z,100683.44
2017-08-01T11:39:41.819Z,100692.13
2017-08-01T11:42:09.199Z,100688.38
2017-08-01T11:44:36.599Z,100697.56
2017-08-01T11:47:03.987Z,100707.49
2017-08-01T11:49:31.438Z,100691.08
2017-08-01T11:51:58.811Z,100705.70
2017-08-01T11:54:26.211Z,100722.73
2017-08-01T11:56:53.602Z,100725.45
2017-08-01T11:59:21.004Z,100727.86
2017-08-01T12:01:48.390Z,100726.30
2017-08-01T12:04:15.796Z,100726.42
2017-08-01T12:06:43.194Z,100731.83
2017-08-01T12:09:10.588Z,100732.25
2017-08-01T12:11:37.982Z,100736.23
2017-08-01T12:14:05.370Z,100727.41
2017-08-01T12:16:32.772Z,100742.22
2017-08-01T12:19:00.171Z,100731.97
2017-08-01T12:21:27.579Z,100738.65
2017-08-01T12:23:54.974Z,100736.03
2017-08-01T12:26:22.375Z,100738.96
2017-08-01T12:28:49.770Z,100727.55
2017-08-01T12:31:17.202Z,100738.71
2017-08-01T12:33:44.589Z,100744.22
2017-08-01T12:36:12.010Z,100741.20
2017-08-01T12:38:39.391Z,100736.41
2017-08-01T12:41:06.788Z,100735.94
2017-08-01T12:43:34.171Z,100731.81
2017-08-01T12:46:01.576Z,100740.14
2017-08-01T12:48:28.975Z,100740.98
2017-08-01T12:50:56.401Z,100736.39
2017-08-01T12:53:23.774Z,100741.82
2017-08-01T12:55:51.164Z,100739.98
2017-08-01T12:58:18.564Z,100743.12
2017-08-01T13:00:45.947Z,100747.02
2017-08-01T13:03:13.351Z,100752.68
2017-08-01T13:05:40.740Z,100754.44
2017-08-01T13:08:08.132Z,100748.86
2017-08-01T13:10:35.521Z,100749.76
2017-08-01T13:13:02.910Z,100739.77
2017-08-01T13:15:30.295Z,100741.06
2017-08-01T13:17:57.690Z,100750.39
2017-08-01T13:20:25.079Z,100756.06
2017-08-01T13:22:52.494Z,100767.58
2017-08-01T13:25:19.875Z,100760.97
2017-08-01T13:27:47.280Z,100761.58
2017-08-01T13:30:14.673Z,100762.55
2017-08-01T13:32:42.065Z,100761.59
2017-08-01T13:35:09.450Z,100760.53
2017-08-01T13:37:36.848Z,100759.34
2017-08-01T13:40:04.235Z,100748.70
2017-08-01T13:42:31.647Z,100745.27
2017-08-01T13:44:59.036Z,100750.52
2017-08-01T13:47:26.428Z,100744.28
2017-08-01T13:49:53.832Z,100742.27
2017-08-01T13:52:21.224Z,100742.28
2017-08-01T13:54:48.628Z,100751.16
2017-08-01T13:57:16.011Z,100750.23
2017-08-01T13:59:43.641Z,100750.13
2017-08-01T14:02:11.040Z,100751.27
2017-08-01T14:04:38.431Z,100750.95
2017-08-01T14:07:05.823Z,100747.69
2017-08-01T14:09:33.222Z,100739.19
2017-08-01T14:12:00.928Z,100744.74
2017-08-01T14:14:28.337Z,100742.09
2017-08-01T14:16:55.754Z,100739.51
2017-08-01T14:19:23.164Z,100734.17
2017-08-01T14:21:50.547Z,100733.55
2017-08-01T14:24:17.967Z,100735.02
2017-08-01T14:26:45.356Z,100732.19
2017-08-01T14:29:12.980Z,100736.92
2017-08-01T14:31:40.377Z,100734.03
2017-08-01T14:34:07.778Z,100730.38
2017-08-01T14:36:35.167Z,100732.87
2017-08-01T14:39:02.555Z,100741.30
2017-08-01T14:41:29.958Z,100747.88
2017-08-01T14:43:57.355Z,100750.59
2017-08-01T14:46:24.766Z,100755.55
2017-08-01T14:48:52.164Z,100765.47
2017-08-01T14:51:21.770Z,100781.53
2017-08-01T14:53:49.142Z,100792.91
2017-08-01T14:56:16.562Z,100795.52
2017-08-01T14:58:43.946Z,100782.09
2017-08-01T15:01:11.350Z,100781.57
2017-08-01T15:03:38.748Z,100774.06
2017-08-01T15:06:06.347Z,100779.56
2017-08-01T15:08:33.734Z,100771.01
2017-08-01T15:11:01.128Z,100772.14
2017-08-01T15:13:28.522Z,100773.20
2017-08-01T15:15:55.925Z,100774.25
2017-08-01T15:18:23.307Z,100778.02
2017-08-01T15:20:50.711Z,100786.98
2017-08-01T15:23:18.103Z,100781.52
2017-08-01T15:25:45.503Z,100784.80
2017-08-01T15:28:12.919Z,100777.55
2017-08-01T15:30:40.359Z,100788.63
2017-08-01T15:33:07.750Z,100793.89
2017-08-01T15:35:35.146Z,100787.27
2017-08-01T15:38:02.558Z,100784.39
2017-08-01T15:40:29.946Z,100784.80
2017-08-01T15:42:57.356Z,100789.28
2017-08-01T15:45:24.739Z,100795.54
2017-08-01T15:47:52.185Z,100798.42
2017-08-01T15:50:19.571Z,100798.47
2017-08-01T15:52:46.967Z,100793.04
2017-08-01T15:55:14.359Z,100794.01
2017-08-01T15:57:41.759Z,100805.81
2017-08-01T16:00:09.152Z,100800.39
2017-08-01T16:02:36.563Z,100794.38
2017-08-01T16:05:03.954Z,100793.22
2017-08-01T16:07:31.568Z,100796.07
2017-08-01T16:09:58.963Z,100798.44
2017-08-01T16:12:26.359Z,100797.48
2017-08-01T16:14:53.744Z,100801.15
2017-08-01T16:17:21.143Z,100806.06
2017-08-01T16:19:48.532Z,100807.82
2017-08-01T16:22:15.914Z,100806.21
2017-08-01T16:24:43.303Z,100811.38
2017-08-01T16:27:10.711Z,100812.02
2017-08-01T16:29:38.115Z,100813.11
2017-08-01T16:32:05.494Z,100812.20
2017-08-01T16:34:32.896Z,100808.53
2017-08-01T16:37:00.291Z,100797.80
2017-08-01T16:39:27.698Z,100799.16
2017-08-01T16:41:55.086Z,100795.42
2017-08-01T16:44:22.490Z,100787.98
2017-08-01T16:46:49.885Z,100787.39
2017-08-01T16:49:17.298Z,100784.86
2017-08-01T16:51:44.691Z,100776.88
2017-08-01T16:54:12.114Z,100766.21
2017-08-01T16:56:39.711Z,100774.86
2017-08-01T16:59:07.112Z,100794.80
2017-08-01T17:01:34.494Z,100798.80
2017-08-01T17:04:01.892Z,100792.41
2017-08-01T17:06:29.271Z,100796.80
2017-08-01T17:08:56.671Z,100804.12
2017-08-01T17:11:24.091Z,100804.25
2017-08-01T17:13:51.523Z,100802.26
2017-08-01T17:16:18.906Z,100807.34
2017-08-01T17:18:46.299Z,100809.50
2017-08-01T17:21:13.704Z,100815.41
2017-08-01T17:23:41.099Z,100816.50
2017-08-01T17:26:08.491Z,100806.28
2017-08-01T17:28:35.878Z,100807.67
2017-08-01T17:31:03.271Z,100803.52
2017-08-01T17:33:30.662Z,100812.04
2017-08-01T17:35:58.059Z,100822.26
2017-08-01T17:38:25.442Z,100820.61
2017-08-01T17:40:52.864Z,100815.33
2017-08-01T17:43:20.255Z,100817.12
2017-08-01T17:45:47.666Z,100818.20
2017-08-01T17:48:15.056Z,100804.23
2017-08-01T17:50:42.455Z,100812.49
2017-08-01T17:53:09.842Z,100814.14
2017-08-01T17:55:37.250Z,100811.82
2017-08-01T17:58:04.651Z,100808.89
2017-08-01T18:03:05.832Z,100809.41
2017-08-01T18:05:33.203Z,100816.16
2017-08-01T18:08:00.601Z,100823.73
2017-08-01T18:10:27.994Z,100819.67
2017-08-01T18:12:55.393Z,100825.85
2017-08-01T18:15:22.802Z,100830.52
2017-08-01T18:17:50.231Z,100829.67
2017-08-01T18:20:17.831Z,100842.08
2017-08-01T18:22:45.352Z,100842.98
2017-08-01T18:25:12.779Z,100848.28
2017-08-01T18:27:40.240Z,100848.88
2017-08-01T18:30:07.651Z,100851.73
2017-08-01T18:32:35.128Z,100846.16
2017-08-01T18:35:02.521Z,100851.35
2017-08-01T18:37:29.962Z,100850.94
2017-08-01T18:39:57.363Z,100856.33
2017-08-01T18:42:24.784Z,100860.09
2017-08-01T18:44:52.170Z,100858.62
2017-08-01T18:47:19.594Z,100864.00
2017-08-01T18:49:47.002Z,100863.77
2017-08-01T18:52:14.406Z,100858.16
2017-08-01T18:54:41.798Z,100853.22
2017-08-01T18:57:09.198Z,100853.53
2017-08-01T18:59:36.603Z,100860.02
2017-08-01T19:02:04.256Z,100857.04
2017-08-01T19:04:31.658Z,100857.89
2017-08-01T19:06:59.047Z,100861.33
2017-08-01T19:09:26.459Z,100860.60
2017-08-01T19:11:53.854Z,100863.59
2017-08-01T19:14:21.267Z,100859.39
2017-08-01T19:16:48.662Z,100862.81
2017-08-01T19:19:16.143Z,100860.94
2017-08-01T19:21:43.552Z,100864.66
2017-08-01T19:24:10.951Z,100876.92
2017-08-01T19:26:38.343Z,100886.77
2017-08-01T19:29:05.745Z,100901.41
2017-08-01T19:31:33.147Z,100899.24
2017-08-01T19:34:00.771Z,100899.39
2017-08-01T19:36:28.199Z,100897.17
2017-08-01T19:38:55.600Z,100891.86
2017-08-01T19:41:22.992Z,100887.49
2017-08-01T19:43:50.391Z,100890.55
2017-08-01T19:46:17.836Z,100895.25
2017-08-01T19:48:45.236Z,100906.27
2017-08-01T19:51:12.634Z,100913.58
2017-08-01T19:53:40.052Z,100907.20
2017-08-01T19:56:07.443Z,100910.63
2017-08-01T19:58:34.850Z,100916.57
2017-08-01T20:01:02.463Z,100927.77
2017-08-01T20:03:29.871Z,100924.89
2017-08-01T20:05:57.268Z,100918.47
2017-08-01T20:08:24.697Z,100925.88
2017-08-01T20:10:52.109Z,100928.22
2017-08-01T20:13:19.497Z,100920.38
2017-08-01T20:15:46.899Z,100922.10
2017-08-01T20:18:14.371Z,100936.11
2017-08-01T20:20:41.775Z,100936.78
2017-08-01T20:23:09.183Z,100943.23
2017-08-01T20:25:36.590Z,100943.62
2017-08-01T20:28:03.967Z,100945.45
2017-08-01T20:30:31.379Z,100945.36
2017-08-01T20:32:58.772Z,100945.36
2017-08-01T20:35:26.176Z,100944.46
2017-08-01T20:37:53.566Z,100943.27
2017-08-01T20:40:20.990Z,100949.14
2017-08-01T20:42:48.420Z,100946.02
2017-08-01T20:45:15.828Z,100948.72
2017-08-01T20:47:43.219Z,100954.33
2017-08-01T20:50:10.623Z,100950.70
2017-08-01T20:52:38.019Z,100958.73
2017-08-01T20:55:05.432Z,100960.20
2017-08-01T20:57:32.848Z,100954.80
2017-08-01T21:00:00.260Z,100961.24
2017-08-01T21:02:27.646Z,100960.05
2017-08-01T21:04:55.057Z,100968.46
2017-08-01T21:07:22.495Z,100966.02
2017-08-01T21:09:49.875Z,100964.97
2017-08-01T21:12:17.267Z,100969.76
2017-08-01T21:14:44.675Z,100966.47
2017-08-01T21:17:12.282Z,100976.41
2017-08-01T21:19:39.680Z,100981.64
2017-08-01T21:22:07.288Z,100975.20
2017-08-01T21:24:34.700Z,100974.80
2017-08-01T21:27:02.159Z,100980.82
2017-08-01T21:29:29.550Z,100976.19
2017-08-01T21:31:59.504Z,100970.44
2017-08-01T21:34:26.911Z,100968.45
2017-08-01T21:36:54.311Z,100964.30
2017-08-01T21:39:21.694Z,100968.62
2017-08-01T21:41:49.090Z,100967.12
2017-08-01T21:44:16.499Z,100971.63
2017-08-01T21:46:43.890Z,100963.44
2017-08-01T21:49:11.281Z,100954.66
2017-08-01T21:51:38.672Z,100950.55
2017-08-01T21:54:06.063Z,100949.37
2017-08-01T21:56:33.463Z,100950.52
2017-08-01T21:59:00.862Z,100960.09
2017-08-01T22:01:28.263Z,100951.94
2017-08-01T22:03:55.654Z,100962.48
2017-08-01T22:06:23.060Z,100968.71
2017-08-01T22:08:50.452Z,100957.83
2017-08-01T22:11:17.846Z,100960.11
2017-08-01T22:13:45.238Z,100960.12
2017-08-01T22:16:12.655Z,100953.25
2017-08-01T22:18:40.036Z,100949.23
2017-08-01T22:21:07.470Z,100956.15
2017-08-01T22:23:34.856Z,100956.38
2017-08-01T22:26:02.259Z,100953.86
2017-08-01T22:28:29.675Z,100950.40
2017-08-01T22:30:57.104Z,100950.67
2017-08-01T22:33:24.508Z,100950.42
2017-08-01T22:35:51.887Z,100959.60
2017-08-01T22:38:19.293Z,100961.77
2017-08-01T22:40:46.688Z,100967.19
2017-08-01T22:43:14.083Z,100972.71
2017-08-01T22:45:41.480Z,100968.19
2017-08-01T22:48:08.878Z,100969.11
2017-08-01T22:50:36.265Z,100970.02
2017-08-01T22:53:03.654Z,100975.25
2017-08-01T22:55:31.052Z,100975.48
2017-08-01T22:57:58.453Z,100982.63
2017-08-01T23:00:25.850Z,100983.05
2017-08-01T23:02:53.301Z,100996.87
2017-08-01T23:05:20.687Z,100994.79
2017-08-01T23:07:48.137Z,100996.38
2017-08-01T23:10:15.751Z,101002.44
2017-08-01T23:12:43.139Z,101003.36
2017-08-01T23:15:10.551Z,101005.31
2017-08-01T23:17:37.947Z,101005.14
2017-08-01T23:20:05.350Z,101003.89
2017-08-01T23:22:32.734Z,101011.46
2017-08-01T23:25:00.130Z,101009.66
2017-08-01T23:27:27.534Z,101013.30
2017-08-01T23:29:54.925Z,101017.05
2017-08-01T23:32:22.331Z,101013.48
2017-08-01T23:34:49.727Z,101016.89
2017-08-01T23:37:17.136Z,101021.69
2017-08-01T23:39:44.535Z,101022.42
2017-08-01T23:42:11.939Z,101028.45
2017-08-01T23:44:39.356Z,101019.49
2017-08-01T23:47:06.769Z,101029.98
2017-08-01T23:49:34.147Z,101029.63
2017-08-01T23:52:01.543Z,101023.78
2017-08-01T23:54:28.944Z,101034.43
2017-08-01T23:56:56.343Z,101035.94
2017-08-01T23:59:23.745Z,101030.19
